Time;durP1;ratioP1;P1;durP2;ratioP2;P2;SDS_P1;SDS_P2;PMS_P1;PMS_P2;Temp;Humidity;BMP_temperature;BMP_pressure;BME280_temperature;BME280_humidity;BME280_pressure;Samples;Min_cycle;Max_cycle;Signal;HPM_P1;HPM_P2
2022/08/30 00:01:01;;;;;;;7.05;2.42;;;;;;;18.01;100.00;99284.03;5072970;28;20257;-91
2022/08/30 00:01:59;;;;;;;7.80;2.20;;;;;;;17.80;100.00;99276.75;5077851;28;20040;-91
2022/08/30 00:04:25;;;;;;;6.22;2.03;;;;;;;18.30;100.00;99276.09;5076171;28;20035;-91
2022/08/30 00:06:51;;;;;;;6.20;1.77;;;;;;;17.49;100.00;99278.50;5065369;28;20040;-91
2022/08/30 00:09:16;;;;;;;8.32;2.35;;;;;;;17.73;100.00;99279.56;5063880;28;20025;-90
2022/08/30 00:11:42;;;;;;;7.88;2.22;;;;;;;18.01;100.00;99286.69;5061853;28;20032;-90
2022/08/30 00:14:07;;;;;;;7.35;2.10;;;;;;;17.83;100.00;99277.53;5068284;28;20718;-90
2022/08/30 00:16:33;;;;;;;8.07;2.20;;;;;;;17.47;100.00;99282.13;5077879;28;20035;-91
2022/08/30 00:18:59;;;;;;;8.15;2.00;;;;;;;17.57;100.00;99283.56;5064482;28;20050;-91
2022/08/30 00:21:25;;;;;;;9.30;1.92;;;;;;;17.45;100.00;99281.28;5062620;28;20512;-90
2022/08/30 00:23:51;;;;;;;6.60;2.20;;;;;;;17.60;100.00;99286.09;5056908;28;20024;-90
2022/08/30 00:26:17;;;;;;;6.65;2.08;;;;;;;18.27;100.00;99273.56;5057199;28;20025;-89
2022/08/30 00:28:43;;;;;;;9.32;2.10;;;;;;;18.46;100.00;99276.47;5055317;28;20725;-89
2022/08/30 00:31:09;;;;;;;7.80;2.13;;;;;;;18.33;100.00;99282.16;5057168;28;20028;-90
2022/08/30 00:33:35;;;;;;;8.05;2.00;;;;;;;18.08;100.00;99271.53;5058438;28;20036;-90
2022/08/30 00:36:01;;;;;;;6.10;1.70;;;;;;;17.39;100.00;99275.28;5056654;28;20133;-89
2022/08/30 00:38:26;;;;;;;8.02;1.88;;;;;;;17.42;100.00;99268.19;5052167;28;20036;-89
2022/08/30 00:40:52;;;;;;;7.18;2.08;;;;;;;17.70;100.00;99268.25;5058454;28;21926;-89
2022/08/30 00:43:24;;;;;;;7.32;2.00;;;;;;;18.36;100.00;99276.78;5061394;28;20029;-90
2022/08/30 00:45:53;;;;;;;6.90;2.10;;;;;;;18.25;100.00;99278.91;5064515;28;20036;-90
2022/08/30 00:48:19;;;;;;;8.07;2.22;;;;;;;18.07;100.00;99275.91;5062649;28;20024;-90
2022/08/30 00:50:57;;;;;;;6.55;1.90;;;;;;;18.65;100.00;99268.78;5063607;28;20036;-89
2022/08/30 00:53:27;;;;;;;6.60;1.88;;;;;;;18.51;100.00;99279.81;5060193;28;20037;-89
2022/08/30 00:55:54;;;;;;;8.55;2.25;;;;;;;18.12;100.00;99283.72;5058432;28;20120;-89
2022/08/30 00:58:28;;;;;;;7.95;2.20;;;;;;;18.67;100.00;99278.38;5062013;28;20030;-89
2022/08/30 01:00:57;;;;;;;6.80;1.88;;;;;;;18.03;100.00;99284.00;5054191;28;20025;-89
2022/08/30 01:03:23;;;;;;;6.38;1.95;;;;;;;17.85;100.00;99282.75;5060341;28;20278;-89
2022/08/30 01:05:50;;;;;;;8.15;2.28;;;;;;;17.98;100.00;99283.25;5058338;28;20119;-89
2022/08/30 01:08:17;;;;;;;7.35;1.83;;;;;;;18.20;100.00;99289.59;5061250;28;20052;-89
2022/08/30 01:10:43;;;;;;;7.35;2.30;;;;;;;18.28;100.00;99286.72;5063783;28;20062;-89
2022/08/30 01:13:12;;;;;;;5.75;1.90;;;;;;;18.71;100.00;99279.16;5071915;28;20052;-88
2022/08/30 01:15:39;;;;;;;8.02;1.80;;;;;;;18.17;100.00;99280.91;5083041;28;20040;-89
2022/08/30 01:18:04;;;;;;;7.88;2.25;;;;;;;17.76;100.00;99289.19;5077261;28;20032;-89
2022/08/30 01:20:42;;;;;;;8.52;2.10;;;;;;;18.22;100.00;99294.84;5067639;28;20024;-89
2022/08/30 01:23:12;;;;;;;6.20;1.95;;;;;;;17.46;100.00;99298.84;5066316;28;20136;-89
2022/08/30 01:25:41;;;;;;;8.23;2.08;;;;;;;17.57;100.00;99291.47;5089694;27;20055;-88
2022/08/30 01:28:20;;;;;;;7.25;2.70;;;;;;;17.55;100.00;99283.63;5058318;28;20094;-89
2022/08/30 01:30:46;;;;;;;6.35;2.00;;;;;;;17.53;100.00;99284.56;5062862;28;20041;-90
2022/08/30 01:33:12;;;;;;;6.60;1.98;;;;;;;17.64;100.00;99276.34;5069331;28;20028;-89
2022/08/30 01:35:48;;;;;;;6.38;2.13;;;;;;;17.57;100.00;99288.84;5056961;28;20579;-89
2022/08/30 01:38:16;;;;;;;7.78;1.85;;;;;;;17.77;100.00;99290.03;5089555;27;20036;-90
2022/08/30 01:40:42;;;;;;;7.65;2.10;;;;;;;17.81;100.00;99296.94;5059006;28;20385;-90
2022/08/30 01:43:10;;;;;;;6.82;2.05;;;;;;;17.75;100.00;99290.06;5061545;28;20031;-90
2022/08/30 01:45:35;;;;;;;12.13;2.00;;;;;;;17.53;100.00;99292.47;5060249;28;20540;-90
2022/08/30 01:48:01;;;;;;;6.63;2.00;;;;;;;17.34;100.00;99290.38;5062575;28;20032;-88
2022/08/30 01:50:26;;;;;;;6.45;1.60;;;;;;;17.30;100.00;99282.56;5065130;28;20608;-89
2022/08/30 01:52:52;;;;;;;6.35;1.73;;;;;;;17.81;100.00;99287.25;5061281;28;20093;-89
2022/08/30 01:55:18;;;;;;;5.82;1.83;;;;;;;17.79;100.00;99285.59;5088755;28;20048;-89
2022/08/30 01:57:43;;;;;;;5.93;1.70;;;;;;;17.36;100.00;99282.41;5068790;28;20067;-89
2022/08/30 02:00:09;;;;;;;6.20;1.80;;;;;;;17.15;100.00;99283.91;5055732;28;20139;-88
2022/08/30 02:02:35;;;;;;;6.38;1.67;;;;;;;17.06;100.00;99284.97;5058175;28;20032;-89
2022/08/30 02:05:01;;;;;;;5.85;1.70;;;;;;;17.13;100.00;99283.94;5063396;28;20797;-89
2022/08/30 02:07:26;;;;;;;6.63;1.75;;;;;;;17.10;100.00;99284.00;5056384;28;20064;-89
2022/08/30 02:09:52;;;;;;;6.30;1.80;;;;;;;17.01;100.00;99285.13;5064452;28;20044;-90
2022/08/30 02:12:18;;;;;;;5.13;1.50;;;;;;;16.81;100.00;99283.00;5060884;28;20107;-90
2022/08/30 02:14:44;;;;;;;6.95;1.48;;;;;;;17.08;100.00;99284.94;5062254;28;20119;-89
2022/08/30 02:17:11;;;;;;;7.05;1.75;;;;;;;16.53;100.00;99278.44;5095825;28;20021;-87
2022/08/30 02:19:38;;;;;;;5.68;1.50;;;;;;;16.46;100.00;99281.25;5064155;28;20024;-90
2022/08/30 02:22:04;;;;;;;5.25;1.60;;;;;;;16.68;100.00;99277.16;5063295;28;20123;-88
2022/08/30 02:24:33;;;;;;;5.15;1.40;;;;;;;16.62;100.00;99273.81;5060626;28;20135;-88
2022/08/30 02:26:59;;;;;;;4.97;1.40;;;;;;;16.34;100.00;99275.38;5062704;28;20050;-90
2022/08/30 02:29:25;;;;;;;5.05;1.65;;;;;;;16.80;100.00;99275.09;5062904;28;20519;-90
2022/08/30 02:31:51;;;;;;;5.47;1.40;;;;;;;16.78;100.00;99272.50;5060693;28;20423;-88
2022/08/30 02:34:17;;;;;;;5.35;1.40;;;;;;;17.03;100.00;99267.47;5064941;28;20027;-90
2022/08/30 02:36:43;;;;;;;5.32;1.30;;;;;;;17.07;100.00;99268.28;5056882;28;20044;-88
2022/08/30 02:39:10;;;;;;;5.05;1.50;;;;;;;16.90;100.00;99274.00;5053406;28;20039;-90
2022/08/30 02:41:37;;;;;;;4.97;1.20;;;;;;;16.53;100.00;99272.28;5056169;28;20040;-90
2022/08/30 02:44:06;;;;;;;7.28;1.40;;;;;;;16.64;100.00;99269.38;5093431;28;20492;-90
2022/08/30 02:46:32;;;;;;;5.18;1.40;;;;;;;16.50;100.00;99261.84;5057729;28;20264;-91
2022/08/30 02:48:58;;;;;;;4.95;1.33;;;;;;;17.04;100.00;99261.31;5060140;28;20037;-90
2022/08/30 02:51:24;;;;;;;4.82;1.38;;;;;;;16.93;100.00;99265.16;5056872;28;20745;-89
2022/08/30 02:53:50;;;;;;;4.97;1.40;;;;;;;16.94;100.00;99261.59;5062632;28;20060;-90
2022/08/30 02:56:16;;;;;;;6.03;1.20;;;;;;;16.38;100.00;99270.88;5058957;28;20112;-89
2022/08/30 02:58:43;;;;;;;7.32;1.50;;;;;;;17.04;100.00;99261.31;5061790;28;20103;-89
2022/08/30 03:01:12;;;;;;;4.68;1.25;;;;;;;16.95;100.00;99264.22;5060233;28;20040;-89
2022/08/30 03:03:39;;;;;;;5.53;1.30;;;;;;;16.61;100.00;99269.47;5057422;28;20535;-90
2022/08/30 03:06:04;;;;;;;5.32;1.60;;;;;;;16.61;100.00;99258.94;5067895;28;20043;-89
2022/08/30 03:08:31;;;;;;;5.55;1.35;;;;;;;16.63;100.00;99263.25;5065553;28;20025;-90
2022/08/30 03:10:57;;;;;;;6.45;1.52;;;;;;;16.83;100.00;99264.50;5055627;28;20396;-90
2022/08/30 03:13:23;;;;;;;6.22;1.30;;;;;;;16.55;100.00;99258.19;5059973;28;20059;-90
2022/08/30 03:15:52;;;;;;;5.25;1.50;;;;;;;16.66;100.00;99257.91;5090594;28;20068;-90
2022/08/30 03:18:19;;;;;;;4.63;1.40;;;;;;;16.67;100.00;99259.66;5061586;28;20029;-89
2022/08/30 03:20:45;;;;;;;5.20;1.40;;;;;;;16.85;100.00;99267.94;5055228;28;20111;-90
2022/08/30 03:23:11;;;;;;;5.30;1.70;;;;;;;16.67;100.00;99264.03;5066024;28;20062;-89
2022/08/30 03:25:38;;;;;;;6.43;1.30;;;;;;;16.59;100.00;99261.63;5061196;28;20476;-89
2022/08/30 03:28:04;;;;;;;6.03;1.55;;;;;;;16.84;100.00;99272.38;5062878;28;20139;-89
2022/08/30 03:30:30;;;;;;;6.30;1.60;;;;;;;16.88;100.00;99270.50;5063777;28;20119;-89
2022/08/30 03:32:56;;;;;;;6.53;1.60;;;;;;;17.01;100.00;99279.84;5061844;28;20036;-90
2022/08/30 03:35:21;;;;;;;4.80;1.40;;;;;;;16.62;100.00;99271.16;5090784;28;20119;-90
2022/08/30 03:37:48;;;;;;;6.13;1.52;;;;;;;16.94;100.00;99269.50;5060598;28;20141;-90
2022/08/30 03:40:15;;;;;;;5.38;1.58;;;;;;;16.83;100.00;99268.00;5054269;28;20377;-89
2022/08/30 03:42:41;;;;;;;7.40;1.80;;;;;;;16.66;100.00;99265.81;5058166;28;20046;-90
2022/08/30 03:45:07;;;;;;;5.57;1.50;;;;;;;16.94;100.00;99262.47;5061483;28;20443;-89
2022/08/30 03:47:33;;;;;;;6.05;1.60;;;;;;;16.38;100.00;99263.00;5060138;28;20041;-89
2022/08/30 03:49:59;;;;;;;6.85;1.70;;;;;;;16.28;100.00;99262.34;5094483;28;20491;-89
2022/08/30 03:52:24;;;;;;;4.75;1.33;;;;;;;16.35;100.00;99263.06;5065281;28;20504;-88
2022/08/30 03:54:50;;;;;;;9.30;1.95;;;;;;;16.60;100.00;99265.09;5057211;28;20988;-89
2022/08/30 03:57:15;;;;;;;5.38;1.55;;;;;;;16.36;100.00;99267.44;5065372;28;20058;-89
2022/08/30 03:59:41;;;;;;;5.95;1.50;;;;;;;16.55;100.00;99271.34;5097122;27;20543;-89
2022/08/30 04:02:06;;;;;;;7.35;1.63;;;;;;;16.30;100.00;99267.59;5068459;28;20029;-89
2022/08/30 04:04:32;;;;;;;5.65;1.70;;;;;;;16.08;100.00;99259.34;5077062;28;20035;-89
2022/08/30 04:06:57;;;;;;;7.43;2.08;;;;;;;16.26;100.00;99256.28;5069144;28;20128;-89
2022/08/30 04:09:23;;;;;;;6.85;1.75;;;;;;;15.83;100.00;99259.91;5053574;28;20029;-89
2022/08/30 04:11:51;;;;;;;6.78;1.90;;;;;;;16.20;100.00;99259.06;5066068;28;20028;-89
2022/08/30 04:14:17;;;;;;;7.38;2.03;;;;;;;15.60;100.00;99250.75;5067648;28;20021;-89
2022/08/30 04:16:46;;;;;;;6.95;1.80;;;;;;;16.46;100.00;99265.44;5062545;28;20024;-89
2022/08/30 04:19:11;;;;;;;7.70;1.88;;;;;;;16.64;100.00;99258.84;5061964;28;20111;-89
2022/08/30 04:21:37;;;;;;;5.75;1.60;;;;;;;16.79;100.00;99268.13;5065171;28;20410;-89
2022/08/30 04:24:02;;;;;;;5.32;1.50;;;;;;;17.14;100.00;99274.25;5058665;28;20032;-89
2022/08/30 04:26:28;;;;;;;5.50;1.70;;;;;;;16.81;100.00;99280.34;5063635;28;20357;-89
2022/08/30 04:28:54;;;;;;;6.28;1.60;;;;;;;16.75;100.00;99280.50;5061348;28;20197;-89
2022/08/30 04:31:20;;;;;;;6.72;1.80;;;;;;;16.55;100.00;99275.75;5068699;28;20036;-90
2022/08/30 04:33:46;;;;;;;5.25;1.63;;;;;;;16.46;100.00;99265.44;5066533;28;20361;-89
2022/08/30 04:36:12;;;;;;;5.47;1.77;;;;;;;16.23;100.00;99264.25;5058498;28;20028;-89
2022/08/30 04:38:39;;;;;;;6.15;1.63;;;;;;;16.29;100.00;99268.50;5069526;28;20036;-88
2022/08/30 04:41:15;;;;;;;6.82;1.60;;;;;;;16.55;100.00;99267.84;5058715;28;20032;-89
2022/08/30 04:44:26;;;;;;;5.63;1.67;;;;;;;16.23;100.00;99263.38;5064283;28;20124;-89
2022/08/30 04:46:52;;;;;;;5.78;1.63;;;;;;;16.21;100.00;99261.66;5061672;28;20392;-89
2022/08/30 04:49:17;;;;;;;6.22;1.80;;;;;;;16.45;100.00;99269.84;5069665;28;20675;-89
2022/08/30 04:51:43;;;;;;;5.55;1.80;;;;;;;16.66;100.00;99272.81;5066149;28;20029;-89
2022/08/30 04:54:08;;;;;;;6.07;1.65;;;;;;;16.84;100.00;99275.00;5054238;28;20063;-89
2022/08/30 04:56:34;;;;;;;6.30;1.80;;;;;;;16.92;100.00;99274.81;5062275;28;20214;-89
2022/08/30 04:58:59;;;;;;;7.30;1.80;;;;;;;16.92;100.00;99276.59;5065472;28;20028;-89
2022/08/30 05:01:28;;;;;;;5.88;1.80;;;;;;;17.01;100.00;99277.22;5066692;28;20034;-89
2022/08/30 05:03:55;;;;;;;6.82;1.75;;;;;;;16.57;100.00;99271.31;5061405;28;20036;-88
2022/08/30 05:06:23;;;;;;;6.53;1.80;;;;;;;16.34;100.00;99278.00;5062562;28;20025;-89
2022/08/30 05:08:52;;;;;;;7.43;1.90;;;;;;;16.44;100.00;99277.78;5066785;28;20063;-89
2022/08/30 05:11:18;;;;;;;6.45;1.80;;;;;;;16.78;100.00;99279.56;5091373;27;20066;-89
2022/08/30 05:13:44;;;;;;;5.35;1.52;;;;;;;16.76;100.00;99279.59;5061252;28;20068;-89
2022/08/30 05:16:16;;;;;;;5.97;1.70;;;;;;;16.84;100.00;99284.66;5069879;28;20020;-89
2022/08/30 05:18:45;;;;;;;7.15;1.83;;;;;;;16.76;100.00;99282.25;5059100;28;20060;-89
2022/08/30 05:21:15;;;;;;;6.40;1.60;;;;;;;16.64;100.00;99291.31;5065551;28;20033;-88
2022/08/30 05:23:42;;;;;;;5.65;1.73;;;;;;;16.81;100.00;99288.25;5056745;28;20115;-89
2022/08/30 05:26:16;;;;;;;7.32;1.95;;;;;;;16.82;100.00;99289.13;5059748;28;21566;-89
2022/08/30 05:28:42;;;;;;;6.97;2.00;;;;;;;16.89;100.00;99299.47;5063453;28;20023;-89
2022/08/30 05:31:20;;;;;;;6.03;1.75;;;;;;;16.53;100.00;99293.34;5059744;28;20032;-89
2022/08/30 05:33:47;;;;;;;6.03;1.60;;;;;;;16.85;100.00;99299.56;5062199;28;20032;-89
2022/08/30 05:36:14;;;;;;;5.63;1.58;;;;;;;17.12;100.00;99303.28;5060847;28;20093;-88
2022/08/30 05:38:41;;;;;;;7.78;1.85;;;;;;;16.88;100.00;99296.84;5066181;28;20559;-89
2022/08/30 05:41:07;;;;;;;7.00;1.52;;;;;;;17.07;100.00;99297.25;5055981;28;20025;-89
2022/08/30 05:43:33;;;;;;;6.20;1.70;;;;;;;17.35;100.00;99310.53;5055796;28;20025;-90
2022/08/30 05:46:05;;;;;;;6.55;1.60;;;;;;;17.31;100.00;99306.25;5059884;28;20028;-90
2022/08/30 05:48:31;;;;;;;7.30;1.75;;;;;;;17.25;100.00;99303.81;5060774;28;20120;-90
2022/08/30 05:51:02;;;;;;;5.35;1.88;;;;;;;17.40;100.00;99311.28;5067743;28;20027;-90
2022/08/30 05:53:28;;;;;;;8.27;1.73;;;;;;;17.43;100.00;99312.97;5092649;27;20033;-90
2022/08/30 05:55:57;;;;;;;6.43;1.80;;;;;;;17.17;100.00;99316.31;5063581;28;20035;-90
2022/08/30 05:58:22;;;;;;;5.22;1.50;;;;;;;17.50;100.00;99306.59;5062569;28;20427;-90
2022/08/30 06:00:48;;;;;;;6.70;1.65;;;;;;;16.41;100.00;99302.44;5058632;28;20093;-90
2022/08/30 06:03:13;;;;;;;5.63;1.52;;;;;;;16.57;100.00;99305.53;5060369;28;20743;-90
2022/08/30 06:05:39;;;;;;;7.50;1.85;;;;;;;16.65;100.00;99311.47;5065899;28;20020;-90
2022/08/30 06:08:04;;;;;;;5.85;1.70;;;;;;;16.31;100.00;99303.53;5068030;28;20036;-89
2022/08/30 06:10:30;;;;;;;6.47;1.70;;;;;;;16.08;100.00;99306.72;5061672;28;20082;-89
2022/08/30 06:12:55;;;;;;;8.07;2.08;;;;;;;16.90;100.00;99308.25;5062167;28;20608;-90
2022/08/30 06:15:21;;;;;;;6.75;1.63;;;;;;;17.01;100.00;99311.47;5059591;28;20038;-89
2022/08/30 06:17:47;;;;;;;6.38;1.85;;;;;;;16.66;100.00;99307.94;5062585;28;20028;-89
2022/08/30 06:20:13;;;;;;;8.48;2.03;;;;;;;16.97;100.00;99307.19;5069826;28;20144;-89
2022/08/30 06:22:38;;;;;;;8.02;1.67;;;;;;;16.64;100.00;99308.88;5062621;28;20062;-90
2022/08/30 06:25:04;;;;;;;6.43;1.85;;;;;;;16.83;100.00;99311.94;5060706;28;20021;-90
2022/08/30 06:27:30;;;;;;;5.72;1.55;;;;;;;16.16;100.00;99310.88;5056507;28;20621;-90
2022/08/30 06:29:56;;;;;;;7.00;1.85;;;;;;;16.81;100.00;99305.81;5056590;28;20028;-89
2022/08/30 06:32:21;;;;;;;6.95;2.10;;;;;;;17.35;100.00;99309.69;5061408;28;20043;-89
2022/08/30 06:34:47;;;;;;;6.40;1.80;;;;;;;17.61;100.00;99308.94;5088072;28;20039;-90
2022/08/30 06:37:13;;;;;;;6.85;1.60;;;;;;;17.64;100.00;99308.84;5055564;28;20449;-89
2022/08/30 06:39:38;;;;;;;7.28;1.80;;;;;;;16.95;100.00;99305.50;5060080;28;20024;-90
2022/08/30 06:42:04;;;;;;;6.95;1.75;;;;;;;16.83;100.00;99306.66;5057442;28;20043;-90
2022/08/30 06:44:29;;;;;;;6.38;1.70;;;;;;;17.25;100.00;99309.06;5063330;28;20024;-90
2022/08/30 06:46:55;;;;;;;5.72;1.75;;;;;;;17.06;100.00;99304.31;5056602;28;20131;-90
2022/08/30 06:49:21;;;;;;;7.20;2.08;;;;;;;16.85;100.00;99308.34;5086941;28;20024;-90
2022/08/30 06:51:46;;;;;;;6.75;1.75;;;;;;;16.89;100.00;99302.09;5061248;28;20618;-89
2022/08/30 06:54:12;;;;;;;6.95;1.80;;;;;;;16.71;100.00;99306.06;5062086;28;20049;-90
2022/08/30 06:56:38;;;;;;;6.70;1.85;;;;;;;16.86;100.00;99303.94;5056850;28;20063;-90
2022/08/30 06:59:04;;;;;;;8.32;1.70;;;;;;;17.22;100.00;99310.03;5065656;28;20571;-90
2022/08/30 07:01:30;;;;;;;7.00;1.80;;;;;;;17.53;100.00;99303.88;5054472;28;20035;-90
2022/08/30 07:03:57;;;;;;;6.65;1.45;;;;;;;17.58;100.00;99309.91;5066692;28;20039;-92
2022/08/30 07:06:24;;;;;;;7.50;1.73;;;;;;;17.17;100.00;99316.31;5066988;28;20656;-96
2022/08/30 07:08:51;;;;;;;5.95;1.33;;;;;;;16.85;100.00;99313.63;5074040;28;20036;-96
2022/08/30 07:11:32;;;;;;;5.75;1.58;;;;;;;16.82;100.00;99311.03;5072463;28;20038;-96
2022/08/30 07:13:59;;;;;;;5.07;1.50;;;;;;;17.04;100.00;99310.53;5108373;27;20028;-96
2022/08/30 07:16:25;;;;;;;5.60;1.27;;;;;;;16.70;100.00;99321.88;5108168;27;20538;-96
2022/08/30 07:18:50;;;;;;;8.38;1.60;;;;;;;17.10;100.00;99310.34;5102439;27;20036;-94
2022/08/30 07:21:29;;;;;;;6.53;1.52;;;;;;;17.47;100.00;99311.13;5064287;28;20112;-90
2022/08/30 07:23:56;;;;;;;7.90;1.92;;;;;;;16.85;100.00;99316.25;5063218;28;20097;-89
2022/08/30 07:26:26;;;;;;;6.55;2.22;;;;;;;17.24;100.00;99304.69;5094120;27;20036;-89
2022/08/30 07:28:53;;;;;;;7.45;1.65;;;;;;;17.46;100.00;99319.94;5074723;28;20028;-88
2022/08/30 07:31:19;;;;;;;5.75;1.67;;;;;;;17.28;100.00;99319.53;5061652;28;20025;-89
2022/08/30 07:33:45;;;;;;;7.85;1.67;;;;;;;17.28;100.00;99323.94;5065809;28;20488;-89
2022/08/30 07:36:11;;;;;;;6.50;1.50;;;;;;;17.58;100.00;99319.59;5061237;28;20082;-89
2022/08/30 07:38:37;;;;;;;6.07;1.50;;;;;;;18.04;100.00;99326.16;5073008;28;20036;-88
2022/08/30 07:41:03;;;;;;;7.25;1.63;;;;;;;17.77;100.00;99324.31;5061761;28;20032;-89
2022/08/30 07:43:31;;;;;;;7.32;1.60;;;;;;;17.46;100.00;99319.94;5095716;27;20028;-88
2022/08/30 07:46:02;;;;;;;5.05;1.30;;;;;;;17.85;100.00;99322.31;5063897;28;20028;-89
2022/08/30 07:48:28;;;;;;;5.05;1.60;;;;;;;18.24;100.00;99319.41;5082547;28;20067;-90
2022/08/30 07:50:53;;;;;;;5.90;1.33;;;;;;;18.20;100.00;99326.53;5064687;28;20032;-89
2022/08/30 07:53:22;;;;;;;4.50;1.35;;;;;;;18.44;100.00;99318.78;5065550;28;20609;-89
2022/08/30 07:55:48;;;;;;;4.68;1.30;;;;;;;17.84;100.00;99334.66;5059096;28;20546;-87
2022/08/30 07:58:15;;;;;;;6.65;1.52;;;;;;;18.46;100.00;99329.31;5062985;28;20036;-87
2022/08/30 08:00:41;;;;;;;3.65;1.20;;;;;;;18.44;100.00;99326.72;5060378;28;20112;-87
2022/08/30 08:03:10;;;;;;;6.85;1.55;;;;;;;18.26;100.00;99328.16;5068279;28;20051;-87
2022/08/30 08:05:43;;;;;;;5.25;1.42;;;;;;;18.20;100.00;99330.97;5088386;28;20093;-87
2022/08/30 08:08:10;;;;;;;6.13;1.60;;;;;;;18.72;100.00;99333.72;5055591;28;20036;-87
2022/08/30 08:10:38;;;;;;;5.68;1.70;;;;;;;18.62;100.00;99335.78;5063251;28;20289;-87
2022/08/30 08:13:04;;;;;;;6.22;1.52;;;;;;;19.10;100.00;99334.22;5063987;28;20040;-88
2022/08/30 08:15:30;;;;;;;5.05;1.38;;;;;;;18.85;100.00;99336.81;5065782;28;20581;-87
2022/08/30 08:17:55;;;;;;;4.38;1.20;;;;;;;18.37;100.00;99341.88;5063388;28;20055;-88
2022/08/30 08:20:22;;;;;;;5.32;1.38;;;;;;;18.82;100.00;99339.56;5092646;27;20036;-87
2022/08/30 08:22:48;;;;;;;5.28;1.27;;;;;;;18.60;100.00;99345.56;5066115;28;20056;-87
2022/08/30 08:25:15;;;;;;;5.85;1.67;;;;;;;18.67;100.00;99347.06;5065733;28;20078;-87
2022/08/30 08:27:41;;;;;;;6.20;1.30;;;;;;;18.83;100.00;99349.19;5067163;28;20551;-87
2022/08/30 08:30:07;;;;;;;7.80;1.50;;;;;;;19.50;100.00;99350.44;5066453;28;20142;-87
2022/08/30 08:32:33;;;;;;;7.32;1.33;;;;;;;18.82;100.00;99350.16;5064254;28;20028;-88
2022/08/30 08:34:58;;;;;;;6.57;1.60;;;;;;;18.50;100.00;99344.13;5063763;28;20404;-88
2022/08/30 08:37:24;;;;;;;5.75;1.50;;;;;;;19.25;100.00;99354.84;5060318;28;20389;-88
2022/08/30 08:39:51;;;;;;;5.90;1.40;;;;;;;19.27;100.00;99358.28;5061785;28;20660;-87
2022/08/30 08:42:27;;;;;;;5.32;1.50;;;;;;;18.85;100.00;99347.38;5061664;28;20071;-90
2022/08/30 08:45:18;;;;;;;6.07;1.40;;;;;;;19.12;100.00;99353.53;5062925;28;20396;-92
2022/08/30 08:47:52;;;;;;;5.57;1.40;;;;;;;19.72;100.00;99348.75;5064210;28;20036;-92
2022/08/30 08:50:20;;;;;;;7.03;1.50;;;;;;;19.53;100.00;99351.22;5094215;28;20847;-90
2022/08/30 08:55:44;;;;;;;6.47;1.60;;;;;;;20.02;100.00;99359.13;5066737;28;20151;-92
2022/08/30 08:58:51;;;;;;;7.13;1.70;;;;;;;20.11;100.00;99349.97;5067290;28;20040;-92
2022/08/30 09:01:20;;;;;;;6.38;1.40;;;;;;;19.87;100.00;99349.97;5051895;28;20125;-92
2022/08/30 09:03:46;;;;;;;6.45;1.33;;;;;;;20.80;100.00;99349.88;5060947;28;20148;-93
2022/08/30 09:06:37;;;;;;;6.05;1.40;;;;;;;19.62;100.00;99352.66;5059463;28;20032;-91
2022/08/30 09:09:03;;;;;;;6.88;1.35;;;;;;;19.69;100.00;99342.72;5095934;27;20119;-91
2022/08/30 09:11:36;;;;;;;5.10;1.15;;;;;;;19.36;100.00;99337.72;5090883;28;20097;-90
2022/08/30 09:14:07;;;;;;;8.43;1.17;;;;;;;19.82;100.00;99341.38;5093191;28;20840;-91
2022/08/30 09:16:48;;;;;;;7.03;1.35;;;;;;;20.42;100.00;99346.97;5060317;28;20040;-91
2022/08/30 09:19:45;;;;;;;4.25;1.20;;;;;;;21.00;100.00;99348.16;5087429;28;20032;-90
2022/08/30 09:22:16;;;;;;;4.47;0.98;;;;;;;19.88;100.00;99346.41;5034271;28;20076;-90
2022/08/30 09:24:48;;;;;;;7.30;1.33;;;;;;;19.80;100.00;99351.13;5093732;28;20420;-92
2022/08/30 09:27:29;;;;;;;6.83;1.10;;;;;;;19.71;100.00;99352.31;5097221;27;20028;-91
2022/08/30 09:30:07;;;;;;;4.22;1.02;;;;;;;19.95;100.00;99352.34;5062409;28;20037;-93
2022/08/30 09:32:39;;;;;;;6.35;1.30;;;;;;;20.39;100.00;99355.06;5092908;27;20076;-91
2022/08/30 09:35:10;;;;;;;5.68;1.20;;;;;;;20.85;100.00;99352.34;5067103;28;20029;-91
2022/08/30 09:38:07;;;;;;;5.07;1.20;;;;;;;20.92;100.00;99343.22;5062719;28;20865;-91
2022/08/30 09:40:45;;;;;;;5.45;1.30;;;;;;;20.88;100.00;99349.56;5055050;28;20048;-91
2022/08/30 09:43:16;;;;;;;4.28;1.10;;;;;;;20.95;100.00;99356.34;5072281;28;20029;-92
2022/08/30 09:46:03;;;;;;;4.85;1.38;;;;;;;20.82;100.00;99355.16;5098831;28;20051;-92
2022/08/30 09:48:31;;;;;;;5.93;1.33;;;;;;;21.24;100.00;99354.22;5084527;28;20441;-91
2022/08/30 09:51:09;;;;;;;5.32;1.25;;;;;;;21.52;100.00;99355.69;5069345;28;20020;-93
2022/08/30 09:53:46;;;;;;;4.55;1.20;;;;;;;21.83;100.00;99355.16;5076848;28;20037;-93
2022/08/30 09:56:31;;;;;;;4.22;1.00;;;;;;;21.74;100.00;99354.72;5059963;28;20036;-92
2022/08/30 09:59:36;;;;;;;5.30;1.27;;;;;;;21.09;100.00;99361.06;5060566;28;20484;-91
2022/08/30 10:02:33;;;;;;;5.45;1.13;;;;;;;22.22;100.00;99350.72;5090095;28;20024;-91
2022/08/30 10:05:24;;;;;;;7.57;1.42;;;;;;;21.65;100.00;99350.69;5093522;28;20802;-90
2022/08/30 10:08:14;;;;;;;4.07;0.98;;;;;;;22.06;100.00;99355.91;5061141;28;20032;-90
2022/08/30 10:10:55;;;;;;;6.18;1.33;;;;;;;22.81;100.00;99346.13;5058982;28;20035;-89
2022/08/30 10:13:56;;;;;;;4.15;1.20;;;;;;;23.74;100.00;99349.31;5061276;28;20812;-89
2022/08/30 10:17:02;;;;;;;5.88;1.15;;;;;;;23.85;99.67;99346.97;5055445;28;20040;-90
2022/08/30 10:19:34;;;;;;;5.40;1.40;;;;;;;21.87;100.00;99363.84;5047414;28;20036;-92
2022/08/30 10:22:08;;;;;;;7.05;1.20;;;;;;;22.72;100.00;99351.03;5057584;28;20141;-92
2022/08/30 10:24:41;;;;;;;4.32;1.20;;;;;;;23.27;100.00;99347.38;5079196;28;20033;-93
2022/08/30 10:27:13;;;;;;;6.05;1.33;;;;;;;23.43;100.00;99345.66;5095824;28;20028;-93
2022/08/30 10:29:50;;;;;;;4.82;1.10;;;;;;;23.31;100.00;99344.50;5092866;28;20054;-92
2022/08/30 10:32:45;;;;;;;3.95;1.05;;;;;;;22.66;100.00;99354.88;5067650;28;20028;-94
2022/08/30 10:35:38;;;;;;;5.05;1.23;;;;;;;22.87;100.00;99347.63;5066998;28;20023;-93
2022/08/30 10:38:10;;;;;;;5.80;1.35;;;;;;;22.01;100.00;99352.59;5093795;28;20036;-94
2022/08/30 10:43:54;;;;;;;7.97;1.30;;;;;;;22.45;100.00;99344.34;5062275;28;20093;-93
2022/08/30 10:47:00;;;;;;;5.82;1.30;;;;;;;22.84;100.00;99345.97;5059572;28;20032;-93
2022/08/30 10:49:33;;;;;;;6.13;1.40;;;;;;;22.40;100.00;99345.50;5055039;28;20040;-95
2022/08/30 10:52:11;;;;;;;5.43;1.10;;;;;;;22.24;100.00;99342.66;5094773;28;20089;-95
2022/08/30 10:55:01;;;;;;;5.78;1.00;;;;;;;22.41;100.00;99341.91;5075573;28;20438;-95
2022/08/30 10:57:27;;;;;;;5.53;1.30;;;;;;;23.17;100.00;99341.69;5062690;28;20068;-95
2022/08/30 11:00:06;;;;;;;5.20;1.05;;;;;;;22.43;100.00;99338.22;5070501;28;20016;-95
2022/08/30 11:03:02;;;;;;;5.85;1.30;;;;;;;23.22;100.00;99338.81;5065654;28;20036;-95
2022/08/30 11:05:49;;;;;;;6.82;1.20;;;;;;;22.99;100.00;99346.13;5065439;28;20097;-93
2022/08/30 11:08:23;;;;;;;4.88;1.08;;;;;;;23.26;100.00;99335.03;5056740;28;20085;-94
2022/08/30 11:11:16;;;;;;;5.28;1.20;;;;;;;23.72;100.00;99329.94;5067884;28;20039;-94
2022/08/30 11:13:45;;;;;;;5.68;1.42;;;;;;;23.69;100.00;99336.28;5091037;28;20110;-95
2022/08/30 11:16:17;;;;;;;6.45;1.50;;;;;;;23.25;97.65;99339.50;5054944;28;20032;-93
2022/08/30 11:18:56;;;;;;;5.18;1.00;;;;;;;23.75;99.79;99340.41;5065151;28;20032;-94
2022/08/30 11:21:26;;;;;;;5.30;1.30;;;;;;;22.90;96.10;99333.31;5057437;28;20044;-94
2022/08/30 11:24:07;;;;;;;4.70;1.20;;;;;;;22.84;96.96;99337.13;5054508;28;20032;-94
2022/08/30 11:26:48;;;;;;;6.30;1.40;;;;;;;22.83;98.32;99344.22;5060084;28;20028;-93
2022/08/30 11:29:26;;;;;;;7.50;1.35;;;;;;;22.32;100.00;99340.50;5061406;28;20024;-94
2022/08/30 11:31:54;;;;;;;4.85;1.20;;;;;;;22.92;94.91;99326.09;5067661;28;20024;-94
2022/08/30 11:34:47;;;;;;;4.88;1.20;;;;;;;22.67;99.43;99335.28;5063465;28;20124;-94
2022/08/30 11:37:12;;;;;;;4.30;1.10;;;;;;;23.31;98.66;99333.84;5097466;28;20021;-94
2022/08/30 11:39:41;;;;;;;7.00;1.38;;;;;;;23.27;100.00;99326.09;5058706;28;20051;-93
2022/08/30 11:42:28;;;;;;;5.20;1.50;;;;;;;23.39;95.49;99330.78;5095993;28;20368;-93
2022/08/30 11:45:22;;;;;;;7.47;1.60;;;;;;;23.44;97.28;99334.06;5064148;28;20040;-95